Time;durP1;ratioP1;P1;durP2;ratioP2;P2;SDS_P1;SDS_P2;PMS_P1;PMS_P2;Temp;Humidity;BMP_temperature;BMP_pressure;BME280_temperature;BME280_humidity;BME280_pressure;Samples;Min_cycle;Max_cycle;Signal;HPM_P1;HPM_P2
2023/07/22 00:00:36;;;;;;;;;7.33;6.67;;;;;21.86;36.95;101156.69;5071240;28;45518;-73
2023/07/22 00:03:01;;;;;;;;;6.00;5.00;;;;;22.00;37.45;101173.72;5059957;28;45131;-71
2023/07/22 00:05:26;;;;;;;;;4.67;4.67;;;;;21.75;37.21;101136.47;5055839;28;47940;-74
2023/07/22 00:07:52;;;;;;;;;7.00;6.00;;;;;21.93;36.21;101173.75;5056308;28;54310;-73
2023/07/22 00:10:17;;;;;;;;;5.00;5.00;;;;;21.87;37.20;101174.59;5057307;28;45449;-74
2023/07/22 00:12:43;;;;;;;;;8.00;7.00;;;;;21.90;36.98;101168.75;5065343;28;45634;-72
2023/07/22 00:15:11;;;;;;;;;8.67;8.67;;;;;21.88;36.81;101162.72;5069491;27;46405;-72
2023/07/22 00:17:37;;;;;;;;;9.00;7.00;;;;;21.66;36.62;101135.03;5050137;28;46462;-72
2023/07/22 00:20:04;;;;;;;;;6.00;6.00;;;;;21.59;36.90;101123.34;5067330;28;45458;-72
2023/07/22 00:22:29;;;;;;;;;6.33;6.33;;;;;20.87;38.14;101011.31;5049116;28;45264;-69
2023/07/22 00:24:55;;;;;;;;;5.67;5.67;;;;;21.28;38.32;101083.38;5070758;27;45492;-71
2023/07/22 00:27:20;;;;;;;;;5.00;4.33;;;;;21.52;37.31;101134.16;5075298;27;45557;-71
2023/07/22 00:29:45;;;;;;;;;4.00;4.00;;;;;21.52;37.48;101134.16;5046192;28;45535;-70
2023/07/22 00:32:11;;;;;;;;;7.00;5.67;;;;;21.29;37.09;101112.06;5072396;28;45400;-74
2023/07/22 00:34:39;;;;;;;;;7.33;6.33;;;;;21.60;37.38;101164.75;5055157;28;46808;-74
2023/07/22 00:37:04;;;;;;;;;5.33;5.33;;;;;21.57;37.14;101160.59;5054290;28;45428;-72
2023/07/22 00:39:29;;;;;;;;;5.33;5.33;;;;;21.61;38.36;101163.72;5062962;28;48267;-72
2023/07/22 00:41:55;;;;;;;;;8.33;7.00;;;;;21.53;37.45;101157.47;5068076;28;45459;-73
2023/07/22 00:44:20;;;;;;;;;4.67;4.67;;;;;21.36;37.65;101134.53;5066450;28;45454;-73
2023/07/22 00:46:45;;;;;;;;;7.00;7.00;;;;;21.46;37.44;101156.63;5067599;28;45463;-74
2023/07/22 00:49:14;;;;;;;;;7.00;7.00;;;;;21.48;38.54;101161.84;5068492;28;45236;-73
2023/07/22 00:51:39;;;;;;;;;8.00;7.00;;;;;21.42;37.97;101155.34;5070435;27;45650;-71
2023/07/22 00:54:05;;;;;;;;;9.00;7.00;;;;;21.41;38.19;101153.69;5069542;28;45978;-72
2023/07/22 00:56:35;;;;;;;;;8.67;7.33;;;;;21.37;38.22;101155.16;5056034;28;45355;-73
2023/07/22 00:59:01;;;;;;;;;7.33;7.00;;;;;21.05;39.82;101091.00;5067667;27;45368;-76
2023/07/22 01:01:27;;;;;;;;;5.33;4.00;;;;;21.31;38.11;101134.34;5072361;28;45528;-74
2023/07/22 01:03:52;;;;;;;;;5.33;5.33;;;;;21.14;40.24;101116.78;5069753;27;45433;-77
2023/07/22 01:06:19;;;;;;;;;7.00;5.67;;;;;21.33;38.77;101156.59;5058298;27;46439;-78
2023/07/22 01:08:46;;;;;;;;;5.00;5.00;;;;;21.30;39.33;101156.19;5061347;28;45388;-75
2023/07/22 01:11:12;;;;;;;;;5.00;5.00;;;;;21.02;38.32;101100.31;5050484;28;45487;-76
2023/07/22 01:13:38;;;;;;;;;6.33;6.33;;;;;21.20;39.17;101127.59;5069223;27;46498;-79
2023/07/22 01:16:05;;;;;;;;;10.67;6.67;;;;;21.30;38.54;101146.19;5060526;28;45354;-73
2023/07/22 01:18:31;;;;;;;;;5.67;5.00;;;;;21.30;40.09;101150.78;5069935;27;45636;-76
2023/07/22 01:20:56;;;;;;;;;8.33;8.00;;;;;21.18;39.08;101135.09;5072476;27;45464;-76
2023/07/22 01:23:22;;;;;;;;;6.00;6.00;;;;;21.25;38.52;101140.56;5068769;28;46510;-76
2023/07/22 01:25:48;;;;;;;;;4.33;4.00;;;;;21.24;39.17;101147.84;5071185;27;46636;-78
2023/07/22 01:28:13;;;;;;;;;7.67;7.00;;;;;21.23;39.24;101134.50;5069872;28;45392;-73
2023/07/22 01:30:39;;;;;;;;;5.00;5.00;;;;;21.13;40.38;101128.63;5067030;28;45357;-74
2023/07/22 01:33:05;;;;;;;;;6.00;6.00;;;;;21.13;38.78;101124.06;5058552;28;46343;-76
2023/07/22 01:35:30;;;;;;;;;8.00;6.67;;;;;21.06;39.30;101116.97;5038899;28;45640;-73
2023/07/22 01:37:55;;;;;;;;;7.00;6.00;;;;;21.16;39.42;101129.06;5057306;28;45495;-72
2023/07/22 01:40:23;;;;;;;;;8.00;6.33;;;;;21.14;39.03;101130.31;5054540;28;45506;-72
2023/07/22 01:42:48;;;;;;;;;6.50;6.50;;;;;21.00;38.85;101109.66;5055420;28;46069;-73
2023/07/22 01:45:14;;;;;;;;;5.00;5.00;;;;;21.09;38.84;101125.50;5056549;28;45348;-73
2023/07/22 01:47:40;;;;;;;;;8.67;6.33;;;;;20.94;39.78;101104.03;5056702;28;45388;-73
2023/07/22 01:50:07;;;;;;;;;7.67;7.00;;;;;21.06;39.75;101123.22;5052589;28;45404;-73
2023/07/22 01:52:32;;;;;;;;;6.33;5.33;;;;;21.04;40.25;101121.75;5050561;28;46003;-72
2023/07/22 01:54:58;;;;;;;;;10.00;7.33;;;;;21.02;40.46;101123.81;5051109;28;46013;-72
2023/07/22 01:57:23;;;;;;;;;7.00;7.00;;;;;21.02;39.32;101126.50;5051776;28;45599;-72
2023/07/22 01:59:48;;;;;;;;;7.67;5.00;;;;;20.87;40.60;101105.91;5034350;28;45641;-73
2023/07/22 02:02:14;;;;;;;;;9.50;7.50;;;;;21.00;40.13;101125.88;5051519;28;47128;-72
2023/07/22 02:04:39;;;;;;;;;8.33;7.33;;;;;20.95;39.50;101132.75;5054318;28;45598;-73
2023/07/22 02:07:05;;;;;;;;;11.00;7.00;;;;;20.63;40.10;101080.25;5057480;28;45275;-73
2023/07/22 02:09:32;;;;;;;;;7.00;7.00;;;;;20.94;39.84;101132.94;5058167;28;45428;-73
2023/07/22 02:11:58;;;;;;;;;5.33;5.33;;;;;20.94;41.36;101124.84;5057334;28;45629;-72
2023/07/22 02:14:23;;;;;;;;;8.33;8.33;;;;;20.93;41.23;101132.09;5057685;28;45186;-73
2023/07/22 02:16:48;;;;;;;;;6.67;6.67;;;;;20.44;39.58;101045.06;5057880;28;45524;-73
2023/07/22 02:19:15;;;;;;;;;10.67;8.67;;;;;20.91;41.10;101131.47;5058006;28;45597;-73
2023/07/22 02:21:40;;;;;;;;;7.67;7.33;;;;;20.87;40.54;101129.41;5057537;28;46625;-74
2023/07/22 02:24:05;;;;;;;;;9.00;7.67;;;;;20.85;41.10;101128.75;5057358;28;45530;-73
2023/07/22 02:26:31;;;;;;;;;7.67;6.00;;;;;20.59;40.06;101092.47;5058690;28;45306;-73
2023/07/22 02:28:56;;;;;;;;;10.33;8.33;;;;;20.81;42.01;101130.19;5058011;28;45349;-72
2023/07/22 02:31:22;;;;;;;;;5.67;5.67;;;;;20.71;40.51;101103.56;5039150;28;47969;-73
2023/07/22 02:33:48;;;;;;;;;7.00;7.00;;;;;20.80;39.98;101118.53;5056614;28;45353;-73
2023/07/22 02:36:13;;;;;;;;;8.00;7.00;;;;;20.82;40.35;101132.72;5057315;28;45418;-72
2023/07/22 02:38:38;;;;;;;;;6.67;6.00;;;;;20.63;40.52;101103.75;5057533;28;45572;-72
2023/07/22 02:41:06;;;;;;;;;6.67;6.67;;;;;20.72;40.41;101124.13;5056476;28;56782;-72
2023/07/22 02:43:32;;;;;;;;;5.33;5.00;;;;;20.35;40.23;101065.94;5057132;28;45194;-72
2023/07/22 02:46:01;;;;;;;;;8.00;6.33;;;;;20.71;39.57;101133.28;5057535;28;45252;-73
2023/07/22 02:48:26;;;;;;;;;6.00;6.00;;;;;20.60;39.81;101120.31;5057620;28;45319;-72
2023/07/22 02:50:51;;;;;;;;;8.00;8.00;;;;;20.57;39.64;101112.63;5057226;28;51493;-72
2023/07/22 02:53:17;;;;;;;;;7.00;7.00;;;;;20.56;39.88;101114.50;5057513;28;45329;-72
2023/07/22 02:55:42;;;;;;;;;9.33;8.00;;;;;20.55;40.20;101118.22;5039282;28;52960;-73
2023/07/22 02:58:07;;;;;;;;;7.33;6.00;;;;;20.64;40.40;101144.06;5057037;28;45513;-73
2023/07/22 03:00:33;;;;;;;;;8.67;7.00;;;;;20.61;41.42;101136.31;5056197;28;66007;-73
2023/07/22 03:03:02;;;;;;;;;10.00;8.00;;;;;20.59;41.55;101138.41;5038907;28;45330;-72
2023/07/22 03:05:29;;;;;;;;;9.00;9.00;;;;;20.56;40.41;101127.16;5056949;28;45381;-72
2023/07/22 03:07:54;;;;;;;;;10.00;7.00;;;;;20.59;41.72;101142.97;5056983;28;45329;-71
2023/07/22 03:10:19;;;;;;;;;7.00;6.67;;;;;20.51;40.97;101133.16;5056875;28;45812;-72
2023/07/22 03:12:45;;;;;;;;;8.67;8.00;;;;;20.32;41.34;101105.00;5056948;28;45317;-72
2023/07/22 03:15:12;;;;;;;;;6.00;6.00;;;;;20.12;40.98;101071.63;5057149;28;45285;-72
2023/07/22 03:17:39;;;;;;;;;9.67;9.67;;;;;20.52;41.13;101132.13;5055729;28;45435;-72
2023/07/22 03:20:08;;;;;;;;;8.67;8.67;;;;;20.37;41.91;101115.19;5056873;28;45953;-72
2023/07/22 03:22:34;;;;;;;;;4.67;4.33;;;;;20.44;41.09;101134.19;5057576;28;45265;-72
2023/07/22 03:24:59;;;;;;;;;8.00;6.00;;;;;20.44;41.16;101142.28;5056696;28;45523;-73
2023/07/22 03:27:25;;;;;;;;;10.33;7.00;;;;;20.35;41.70;101118.09;5056388;28;45507;-72
2023/07/22 03:29:50;;;;;;;;;11.33;7.33;;;;;20.42;41.26;101126.25;5056723;28;46267;-73
2023/07/22 03:32:15;;;;;;;;;6.00;4.00;;;;;20.44;41.78;101143.13;5056289;28;47680;-72
2023/07/22 03:34:41;;;;;;;;;10.00;7.00;;;;;20.35;41.32;101131.59;5056765;28;45500;-75
2023/07/22 03:37:06;;;;;;;;;8.67;6.33;;;;;20.28;43.24;101136.13;5056751;28;45483;-73
2023/07/22 03:39:32;;;;;;;;;14.00;10.00;;;;;20.31;41.42;101138.44;5056402;28;46860;-73
2023/07/22 03:41:57;;;;;;;;;8.00;7.00;;;;;20.38;41.86;101145.72;5056332;28;45502;-73
2023/07/22 03:44:23;;;;;;;;;9.33;9.00;;;;;20.06;41.59;101091.34;5056703;28;45376;-72
2023/07/22 03:46:48;;;;;;;;;7.00;6.33;;;;;20.38;42.34;101149.25;5041498;28;45443;-75
2023/07/22 03:49:13;;;;;;;;;7.33;6.67;;;;;20.34;41.42;101151.53;5060170;28;46285;-72
2023/07/22 03:51:39;;;;;;;;;5.33;5.33;;;;;20.35;41.64;101150.50;5060118;28;62170;-72
2023/07/22 03:54:04;;;;;;;;;7.67;6.67;;;;;20.35;41.42;101144.25;5060507;28;45396;-73
2023/07/22 03:56:29;;;;;;;;;7.33;6.00;;;;;20.39;41.76;101155.50;5059498;28;45638;-72
2023/07/22 03:58:55;;;;;;;;;7.33;7.33;;;;;20.09;41.38;101101.72;5059393;28;46464;-73
2023/07/22 04:01:20;;;;;;;;;12.00;11.67;;;;;20.35;41.44;101144.25;5059639;28;45504;-73
2023/07/22 04:03:46;;;;;;;;;7.00;7.00;;;;;20.32;41.61;101137.38;5059625;28;45265;-71
2023/07/22 04:06:11;;;;;;;;;7.33;7.33;;;;;20.22;41.76;101125.25;5059802;28;45464;-72
2023/07/22 04:08:36;;;;;;;;;9.00;7.00;;;;;20.26;42.14;101131.97;5059541;28;46168;-72
2023/07/22 04:11:02;;;;;;;;;7.00;7.00;;;;;20.21;41.71;101127.13;5059647;28;45254;-76
2023/07/22 04:13:27;;;;;;;;;13.00;7.67;;;;;20.20;41.48;101128.16;5059871;28;45233;-72
2023/07/22 04:15:53;;;;;;;;;6.67;6.67;;;;;20.28;40.76;101140.69;5060120;28;45465;-71
2023/07/22 04:18:20;;;;;;;;;12.33;8.67;;;;;20.21;41.12;101139.78;5059854;28;45591;-71
2023/07/22 04:20:48;;;;;;;;;10.33;7.00;;;;;20.17;41.11;101133.13;5059250;28;45542;-73
2023/07/22 04:23:14;;;;;;;;;7.33;6.00;;;;;20.18;41.58;101146.44;5059127;28;45260;-73
2023/07/22 04:25:43;;;;;;;;;6.00;6.00;;;;;20.11;41.48;101132.06;5041475;28;45463;-71
2023/07/22 04:28:08;;;;;;;;;8.67;6.67;;;;;20.14;41.61;101141.63;5058755;28;46479;-73
2023/07/22 04:30:35;;;;;;;;;7.33;6.33;;;;;20.13;42.49;101135.41;5059062;28;45313;-72
2023/07/22 04:33:01;;;;;;;;;8.67;6.67;;;;;20.14;42.06;101139.75;5059476;28;45289;-73
2023/07/22 04:35:26;;;;;;;;;7.00;7.00;;;;;20.13;41.61;101138.09;5059832;28;45459;-74
2023/07/22 04:37:52;;;;;;;;;7.33;7.33;;;;;20.04;41.31;101131.19;5058913;28;46299;-73
2023/07/22 04:40:18;;;;;;;;;9.67;7.67;;;;;19.95;41.59;101127.78;5058844;28;45505;-73
2023/07/22 04:42:44;;;;;;;;;6.67;6.67;;;;;20.04;41.32;101145.50;5059284;28;45447;-73
2023/07/22 04:45:11;;;;;;;;;9.33;5.67;;;;;20.04;41.39;101147.38;5059638;28;45382;-73
2023/07/22 04:47:38;;;;;;;;;7.67;7.00;;;;;20.00;41.28;101149.63;5058651;28;47136;-75
2023/07/22 04:50:06;;;;;;;;;8.00;6.67;;;;;19.96;41.71;101152.91;5058841;28;45282;-72
2023/07/22 04:52:31;;;;;;;;;8.33;8.33;;;;;19.92;41.40;101143.53;5058931;28;45407;-72
2023/07/22 04:54:57;;;;;;;;;7.33;7.33;;;;;19.97;41.74;101138.38;5059072;28;45484;-73
2023/07/22 04:57:22;;;;;;;;;8.67;6.00;;;;;19.86;42.51;101115.47;5057708;28;45454;-72
2023/07/22 04:59:47;;;;;;;;;7.33;7.33;;;;;20.05;41.91;101131.00;5057859;28;65073;-73
2023/07/22 05:02:13;;;;;;;;;11.00;8.00;;;;;20.21;42.04;101156.81;5057321;28;45498;-72
2023/07/22 05:04:38;;;;;;;;;12.67;9.00;;;;;20.21;41.77;101151.44;5058956;28;45226;-73
2023/07/22 05:07:04;;;;;;;;;9.00;6.00;;;;;20.27;42.14;101150.66;5058463;28;46455;-73
2023/07/22 05:09:29;;;;;;;;;11.67;6.67;;;;;20.24;42.22;101140.25;5058360;28;45428;-72
2023/07/22 05:11:55;;;;;;;;;7.00;7.00;;;;;20.21;41.42;101132.53;5059084;28;45440;-72
2023/07/22 05:14:20;;;;;;;;;11.33;10.33;;;;;20.29;41.63;101145.88;5059515;28;45506;-73
2023/07/22 05:16:45;;;;;;;;;9.00;8.67;;;;;20.27;41.53;101144.44;5058502;28;45286;-73
2023/07/22 05:19:11;;;;;;;;;8.33;8.33;;;;;20.34;41.59;101148.00;5058512;28;45443;-72
2023/07/22 05:21:36;;;;;;;;;6.00;6.00;;;;;20.38;41.37;101146.56;5058436;28;45202;-72
2023/07/22 05:24:02;;;;;;;;;8.67;8.67;;;;;20.34;42.06;101135.31;5058612;28;45625;-72
2023/07/22 05:26:27;;;;;;;;;7.00;7.00;;;;;20.30;42.59;101117.84;5058187;28;45746;-72
2023/07/22 05:28:53;;;;;;;;;6.67;6.67;;;;;20.52;41.24;101148.34;5058402;28;45296;-72
2023/07/22 05:31:18;;;;;;;;;7.67;7.67;;;;;20.56;42.71;101151.47;5058512;28;45371;-71
2023/07/22 05:33:43;;;;;;;;;13.00;8.00;;;;;20.54;42.28;101143.56;5058947;28;45546;-72
2023/07/22 05:36:09;;;;;;;;;7.67;7.00;;;;;20.64;41.63;101151.31;5057116;28;47719;-73
2023/07/22 05:38:34;;;;;;;;;9.00;9.00;;;;;20.56;41.98;101132.56;5057405;28;45545;-73
2023/07/22 05:40:59;;;;;;;;;7.33;7.33;;;;;20.62;40.79;101137.16;5058507;28;48525;-71
2023/07/22 05:43:25;;;;;;;;;7.33;5.33;;;;;20.67;41.11;101150.94;5040074;28;45275;-72
2023/07/22 05:45:51;;;;;;;;;5.33;5.33;;;;;20.62;40.91;101137.16;5056663;28;48443;-73
2023/07/22 05:48:16;;;;;;;;;10.33;6.33;;;;;20.73;41.52;101144.72;5058521;28;45515;-74
2023/07/22 05:50:41;;;;;;;;;8.33;7.00;;;;;20.72;41.78;101145.75;5058275;28;45509;-72
2023/07/22 05:53:07;;;;;;;;;8.00;6.00;;;;;20.75;41.53;101152.59;5058027;28;45292;-72
2023/07/22 05:55:32;;;;;;;;;11.67;7.33;;;;;20.76;40.53;101149.72;5056274;28;47881;-72
2023/07/22 05:57:58;;;;;;;;;4.67;4.67;;;;;20.79;40.96;101149.31;5057399;28;45392;-73
2023/07/22 06:00:23;;;;;;;;;5.33;4.00;;;;;20.86;41.01;101150.19;5039812;28;45391;-71
2023/07/22 06:02:48;;;;;;;;;6.33;5.00;;;;;20.77;41.55;101123.53;5039888;28;45482;-72
2023/07/22 06:05:14;;;;;;;;;6.67;5.33;;;;;20.84;40.75;101127.94;5057497;28;52249;-72
2023/07/22 06:07:39;;;;;;;;;7.00;6.00;;;;;20.85;41.72;101124.19;5057605;28;45559;-73
2023/07/22 06:10:05;;;;;;;;;6.33;5.33;;;;;21.12;40.38;101146.72;5057605;28;45370;-73
2023/07/22 06:12:31;;;;;;;;;8.00;6.00;;;;;21.32;41.94;101146.00;5057386;28;45245;-72
2023/07/22 06:14:56;;;;;;;;;7.67;7.67;;;;;21.30;42.14;101135.38;5057230;28;46719;-73
2023/07/22 06:17:21;;;;;;;;;7.33;6.33;;;;;21.53;41.95;101156.63;5057696;28;45274;-73
2023/07/22 06:19:47;;;;;;;;;8.67;7.33;;;;;21.39;41.61;101100.84;5056198;28;45458;-72
2023/07/22 06:22:12;;;;;;;;;9.00;7.00;;;;;21.99;41.57;101153.94;5057879;28;45617;-72
2023/07/22 06:24:37;;;;;;;;;7.33;7.00;;;;;22.32;41.86;101161.25;5056888;28;66117;-73
2023/07/22 06:27:03;;;;;;;;;7.00;7.00;;;;;22.63;41.12;101157.84;5057408;28;45278;-73
2023/07/22 06:29:28;;;;;;;;;5.67;5.67;;;;;22.85;41.04;101158.44;5057412;28;45230;-72
2023/07/22 06:31:54;;;;;;;;;8.67;8.67;;;;;22.97;40.50;101129.56;5057550;28;45498;-72
2023/07/22 06:34:19;;;;;;;;;7.00;6.67;;;;;23.32;40.57;101151.72;5057464;28;45912;-73
2023/07/22 06:36:44;;;;;;;;;10.33;6.33;;;;;23.18;40.90;101112.97;5038565;28;45416;-72
2023/07/22 06:39:09;;;;;;;;;9.00;7.00;;;;;23.46;41.40;101157.91;5056399;28;64952;-73
2023/07/22 06:41:35;;;;;;;;;6.33;6.00;;;;;23.59;41.73;101160.53;5055790;28;45570;-73
2023/07/22 06:44:00;;;;;;;;;10.33;8.00;;;;;23.79;41.82;101153.09;5056659;28;61757;-73
2023/07/22 06:46:26;;;;;;;;;7.00;7.00;;;;;23.86;41.29;101132.16;5057256;28;45354;-73
2023/07/22 06:48:51;;;;;;;;;10.67;6.67;;;;;23.96;41.12;101127.03;5057125;28;45323;-73
2023/07/22 06:51:16;;;;;;;;;7.00;6.00;;;;;24.11;41.65;101151.16;5057388;28;45482;-72
2023/07/22 06:53:41;;;;;;;;;8.33;7.00;;;;;24.22;41.91;101153.09;5056215;28;55527;-73
2023/07/22 06:56:07;;;;;;;;;6.00;4.33;;;;;24.29;41.22;101142.22;5056145;28;56622;-74
2023/07/22 06:58:32;;;;;;;;;5.67;5.67;;;;;24.40;41.47;101149.63;5055237;28;47742;-73
2023/07/22 07:00:57;;;;;;;;;8.33;7.33;;;;;24.41;41.52;101134.97;5057174;28;45433;-72
2023/07/22 07:03:23;;;;;;;;;8.33;7.00;;;;;24.60;40.95;101151.28;5056743;28;46438;-71
2023/07/22 07:05:53;;;;;;;;;7.67;7.67;;;;;24.03;41.40;101055.50;5056947;28;45250;-72
2023/07/22 07:08:19;;;;;;;;;5.00;4.00;;;;;24.56;40.26;101135.44;5057015;28;45294;-72
2023/07/22 07:10:44;;;;;;;;;6.00;6.00;;;;;24.50;40.58;101149.94;5056844;28;45463;-73
2023/07/22 07:13:09;;;;;;;;;6.33;6.33;;;;;24.61;40.48;101152.94;5038311;28;48132;-72
2023/07/22 07:15:35;;;;;;;;;7.00;7.00;;;;;24.47;40.81;101112.34;5056671;28;50151;-72
2023/07/22 07:18:00;;;;;;;;;7.67;7.67;;;;;24.84;40.18;101150.41;5056953;28;45760;-71
2023/07/22 07:20:25;;;;;;;;;6.67;6.67;;;;;24.83;40.02;101121.53;5058939;28;45595;-72
2023/07/22 07:22:51;;;;;;;;;8.00;8.00;;;;;25.10;39.94;101150.06;5060018;28;45604;-73
2023/07/22 07:25:16;;;;;;;;;6.67;6.33;;;;;25.13;39.23;101136.00;5059858;28;48682;-71
2023/07/22 07:27:41;;;;;;;;;5.67;5.33;;;;;25.19;38.93;101136.97;5060146;28;45238;-72
2023/07/22 07:30:08;;;;;;;;;8.67;7.00;;;;;25.23;39.05;101137.34;5060202;28;45415;-72
2023/07/22 07:32:34;;;;;;;;;6.00;6.00;;;;;25.39;38.78;101153.00;5059960;28;45842;-72
2023/07/22 07:34:59;;;;;;;;;6.00;5.00;;;;;25.13;38.08;101089.75;5060011;28;45424;-72
2023/07/22 07:37:24;;;;;;;;;9.00;8.33;;;;;25.52;37.87;101147.38;5059849;28;45582;-73
2023/07/22 07:39:50;;;;;;;;;6.67;5.67;;;;;25.51;38.43;101136.72;5060051;28;45252;-72
2023/07/22 07:42:17;;;;;;;;;4.33;4.33;;;;;25.71;36.86;101153.63;5040901;28;63454;-72
2023/07/22 07:44:42;;;;;;;;;11.67;10.00;;;;;25.68;37.36;101168.53;5059711;28;45284;-72
2023/07/22 07:47:07;;;;;;;;;8.67;7.00;;;;;25.57;37.60;101150.22;5059324;28;52574;-72
2023/07/22 07:49:33;;;;;;;;;8.00;7.00;;;;;25.54;37.12;101144.41;5060022;28;45254;-71
2023/07/22 07:51:59;;;;;;;;;6.67;6.00;;;;;25.30;35.91;101117.16;5059528;28;45402;-71
2023/07/22 07:54:24;;;;;;;;;7.33;6.00;;;;;25.41;36.44;101161.78;5059199;28;45362;-72
2023/07/22 07:56:49;;;;;;;;;6.00;6.00;;;;;25.35;36.99;101158.09;5041054;28;45301;-71
2023/07/22 07:59:15;;;;;;;;;9.67;7.00;;;;;25.39;37.02;101163.91;5058080;28;46779;-72
2023/07/22 08:01:41;;;;;;;;;7.67;7.67;;;;;25.37;37.17;101166.84;5059265;28;47543;-72
2023/07/22 08:04:08;;;;;;;;;9.00;6.00;;;;;25.34;36.35;101158.34;5059342;28;45388;-73
2023/07/22 08:06:33;;;;;;;;;12.33;8.67;;;;;25.14;36.69;101148.56;5059236;28;45385;-73
2023/07/22 08:08:59;;;;;;;;;8.33;7.00;;;;;25.15;36.98;101163.81;5059383;28;45570;-72
2023/07/22 08:11:24;;;;;;;;;8.33;6.33;;;;;25.06;36.67;101143.44;5058871;28;46458;-72
2023/07/22 08:13:51;;;;;;;;;8.00;7.00;;;;;25.20;36.23;101149.50;5059446;28;45418;-72
2023/07/22 08:16:17;;;;;;;;;6.00;5.00;;;;;25.34;36.17;101155.59;5059328;28;45210;-72
2023/07/22 08:18:43;;;;;;;;;6.00;6.00;;;;;25.11;36.45;101097.31;5059340;28;45566;-74
2023/07/22 08:21:09;;;;;;;;;8.00;5.00;;;;;25.50;36.23;101152.22;5058814;28;46626;-73
2023/07/22 08:23:36;;;;;;;;;7.67;5.00;;;;;25.47;35.99;101150.81;5059025;28;45211;-72
2023/07/22 08:26:01;;;;;;;;;9.33;7.00;;;;;25.36;35.29;101131.72;5059457;28;45479;-73
2023/07/22 08:28:27;;;;;;;;;5.67;5.67;;;;;25.15;35.85;101119.44;5041060;28;45591;-73
2023/07/22 08:30:56;;;;;;;;;4.67;4.67;;;;;25.34;35.37;101140.09;5058036;28;46150;-73
2023/07/22 08:33:25;;;;;;;;;5.00;5.00;;;;;25.41;35.32;101135.38;5059026;28;45267;-73
2023/07/22 08:35:53;;;;;;;;;6.00;6.00;;;;;25.45;35.43;101130.31;5058800;28;45594;-73
2023/07/22 08:38:18;;;;;;;;;6.33;6.33;;;;;25.49;35.31;101136.97;5059082;28;45516;-72
2023/07/22 08:40:44;;;;;;;;;6.00;5.00;;;;;25.52;35.33;101136.50;5058595;28;45802;-72
2023/07/22 08:43:11;;;;;;;;;6.33;6.33;;;;;25.49;34.83;101126.06;5058527;28;45463;-73
2023/07/22 08:45:38;;;;;;;;;6.00;5.67;;;;;25.37;34.76;101123.31;5058871;28;45273;-72
2023/07/22 08:48:07;;;;;;;;;5.67;5.67;;;;;25.41;34.97;101134.56;5058811;28;45514;-71
2023/07/22 08:50:35;;;;;;;;;7.00;6.00;;;;;25.38;34.61;101130.41;5058854;28;46488;-72
2023/07/22 08:53:01;;;;;;;;;6.67;6.67;;;;;25.37;35.01;101136.09;5057939;28;46650;-72
2023/07/22 08:55:27;;;;;;;;;7.33;6.33;;;;;25.39;35.06;101133.97;5059024;28;45738;-72
2023/07/22 08:57:54;;;;;;;;;10.67;8.00;;;;;25.31;34.61;101126.97;5058470;28;45542;-73
2023/07/22 09:00:20;;;;;;;;;5.67;5.67;;;;;25.32;35.45;101127.78;5058286;28;46387;-73
2023/07/22 09:02:46;;;;;;;;;8.67;5.33;;;;;25.44;35.42;101134.13;5058379;28;45415;-72
2023/07/22 09:05:11;;;;;;;;;8.00;5.33;;;;;25.41;34.65;101118.22;5058326;28;45430;-73
2023/07/22 09:07:38;;;;;;;;;12.33;9.67;;;;;25.46;34.11;101132.00;5058517;28;45523;-72
2023/07/22 09:10:07;;;;;;;;;5.67;5.33;;;;;25.46;34.01;101115.66;5058167;28;45676;-72
2023/07/22 09:12:39;;;;;;;;;7.00;6.33;;;;;25.44;33.96;101112.34;5058147;28;45295;-74
2023/07/22 09:15:15;;;;;;;;;5.67;5.67;;;;;25.46;34.68;101129.25;5058448;28;45332;-74
2023/07/22 09:17:41;;;;;;;;;9.67;7.00;;;;;25.49;34.84;101126.06;5040052;28;45353;-73
2023/07/22 09:20:07;;;;;;;;;6.67;5.67;;;;;25.42;35.09;101100.81;5057897;28;45301;-71
2023/07/22 09:22:34;;;;;;;;;6.33;6.33;;;;;25.52;34.71;101114.72;5057961;28;45486;-73
2023/07/22 09:25:17;;;;;;;;;5.00;5.00;;;;;25.69;34.39;101123.91;5058262;28;45255;-73
2023/07/22 09:27:43;;;;;;;;;8.00;5.00;;;;;25.66;34.31;101105.28;5057941;28;45489;-73
2023/07/22 09:30:30;;;;;;;;;6.00;5.00;;;;;25.80;34.15;101114.06;5058048;28;47304;-71
2023/07/22 09:32:58;;;;;;;;;23.67;23.67;;;;;25.74;33.83;101104.13;5056390;28;45514;-72
2023/07/22 09:35:26;;;;;;;;;6.00;6.00;;;;;25.88;34.20;101116.47;5057980;28;45294;-72
2023/07/22 09:37:52;;;;;;;;;4.00;4.00;;;;;25.86;33.91;101104.13;5057942;28;45216;-74
2023/07/22 09:40:27;;;;;;;;;7.67;6.67;;;;;25.62;33.71;101060.50;5057533;28;45673;-72
2023/07/22 09:42:55;;;;;;;;;4.33;4.33;;;;;25.85;33.96;101102.47;5057287;28;45270;-72
2023/07/22 09:45:25;;;;;;;;;5.67;5.67;;;;;25.80;33.66;101094.16;5057900;28;45306;-72
2023/07/22 09:47:52;;;;;;;;;5.00;5.00;;;;;25.67;33.70;101093.34;5058008;28;45374;-72
2023/07/22 09:50:19;;;;;;;;;5.00;5.00;;;;;25.66;33.89;101097.09;5057327;28;46150;-72
2023/07/22 09:52:50;;;;;;;;;6.33;5.33;;;;;25.54;34.73;101079.91;5057632;28;45290;-71
2023/07/22 09:55:18;;;;;;;;;5.00;5.00;;;;;25.68;34.68;101086.84;5057480;28;45325;-73
2023/07/22 09:57:49;;;;;;;;;7.00;5.33;;;;;25.73;33.76;101095.13;5057704;28;45494;-72
2023/07/22 10:00:19;;;;;;;;;7.33;7.33;;;;;25.60;33.76;101089.84;5057668;28;45763;-73
2023/07/22 10:02:47;;;;;;;;;6.00;6.00;;;;;25.60;34.27;101095.31;5039263;28;46054;-73
2023/07/22 10:05:17;;;;;;;;;4.67;4.00;;;;;25.71;34.23;101089.09;5057623;28;45443;-73
2023/07/22 10:07:49;;;;;;;;;5.00;5.00;;;;;25.78;34.12;101084.34;5057757;28;45566;-72
2023/07/22 10:10:21;;;;;;;;;3.33;3.33;;;;;25.77;33.74;101079.13;5057134;28;46480;-73
2023/07/22 10:12:46;;;;;;;;;5.00;4.00;;;;;25.74;33.23;101077.72;5056834;28;45494;-72
2023/07/22 10:15:14;;;;;;;;;6.00;5.00;;;;;25.76;32.78;101083.75;5057198;28;45443;-72
2023/07/22 10:17:41;;;;;;;;;6.00;6.00;;;;;25.82;33.97;101081.13;5057382;28;45289;-72
2023/07/22 10:20:14;;;;;;;;;4.00;4.00;;;;;25.84;33.06;101096.22;5056790;28;45245;-72
2023/07/22 10:22:41;;;;;;;;;5.00;5.00;;;;;25.74;32.87;101094.06;5057099;28;45409;-71
2023/07/22 10:25:10;;;;;;;;;7.33;6.33;;;;;25.59;33.38;101098.25;5057267;28;45257;-73
2023/07/22 10:27:36;;;;;;;;;5.00;4.00;;;;;25.50;33.46;101084.16;5057226;28;45171;-72
2023/07/22 10:30:02;;;;;;;;;5.67;4.00;;;;;25.59;33.84;101079.19;5056999;28;45540;-72
2023/07/22 10:32:36;;;;;;;;;6.67;6.67;;;;;25.68;33.04;101080.56;5055309;28;45447;-72
2023/07/22 10:35:03;;;;;;;;;9.33;9.33;;;;;25.37;33.29;101041.66;5057149;28;45340;-74
2023/07/22 10:37:33;;;;;;;;;4.67;4.67;;;;;25.77;33.86;101084.56;5057185;28;45353;-72
2023/07/22 10:40:18;;;;;;;;;4.00;4.00;;;;;25.82;33.33;101081.97;5056755;28;46549;-73
2023/07/22 10:42:54;;;;;;;;;6.67;6.00;;;;;25.55;33.45;101031.72;5056408;28;45302;-71
2023/07/22 10:45:26;;;;;;;;;7.00;5.33;;;;;25.98;33.70;101092.16;5056675;28;45249;-71
2023/07/22 10:48:08;;;;;;;;;6.00;6.00;;;;;25.98;32.45;101086.72;5056873;28;45511;-71
2023/07/22 10:50:42;;;;;;;;;7.33;5.33;;;;;25.80;31.99;101078.66;5056574;28;45838;-71
2023/07/22 10:53:26;;;;;;;;;5.00;4.00;;;;;25.73;32.72;101067.06;5056383;28;45435;-72
2023/07/22 10:56:13;;;;;;;;;5.67;4.33;;;;;25.71;32.43;101071.91;5037941;28;45473;-72
2023/07/22 10:58:44;;;;;;;;;7.00;7.00;;;;;25.75;33.12;101065.75;5056647;28;45360;-71
2023/07/22 11:01:28;;;;;;;;;7.00;4.67;;;;;25.77;32.61;101060.91;5056137;28;45807;-73
2023/07/22 11:04:15;;;;;;;;;4.00;3.67;;;;;25.80;32.39;101066.94;5056249;28;45481;-73
2023/07/22 11:06:44;;;;;;;;;4.33;4.33;;;;;25.80;32.97;101056.03;5056559;28;45377;-72
2023/07/22 11:09:27;;;;;;;;;5.33;5.33;;;;;25.80;32.33;101056.03;5056855;28;45479;-71
2023/07/22 11:11:54;;;;;;;;;9.00;5.67;;;;;25.58;32.71;101018.47;5038013;28;46956;-73
2023/07/22 11:14:24;;;;;;;;;6.33;5.33;;;;;25.84;32.97;101052.63;5056374;28;45502;-73
2023/07/22 11:16:50;;;;;;;;;5.67;4.67;;;;;25.89;31.98;101043.72;5056532;28;45468;-72
2023/07/22 11:19:17;;;;;;;;;6.00;5.00;;;;;25.87;32.94;101035.81;5056597;28;45372;-73
2023/07/22 11:21:43;;;;;;;;;7.33;5.33;;;;;25.65;32.02;100997.41;5056828;28;45324;-73